Kodiak Airport Kodiak US
ICAO: PADQ
IATA:
Category: Medium
Scheduled Services:

Elevation: 78 ft
TransAlt. 18000 ft.

Airport Communications:
ANCHORAGE CNTR:125.1
ATIS:135.5
CTAF:119.8
KENAI RDO:119.8
GND:121.9
TWEB:117.1
OPS:156.8
KENAI RDO:122.2
TWR:119.8
UNICOM:122.8

PADQ Zoom In..

If you have problems with the map follow the link
https://www.worldairports.se/pages/airport.php?
ICAO=PADQ

Runways:

(A) RW 07 length 7550 ft width 150 ft
---- / hdg 74

(B) RW 11 length 5400 ft width 150 ft
---- / hdg 109

(C) RW 18 length 5010 ft width 150 ft
---- / hdg 184

(D) RW 25 length 7550 ft width 150 ft
ILS 110.90 / hdg 254

(E) RW 29 length 5400 ft width 150 ft
---- / hdg 289

(F) RW 36 length 5010 ft width 150 ft
---- / hdg 4

Location; PADQ
Day. 23 / Time. 22.53 Zulu
* Altimeter: 29.53
* Temperature: -07° c. -19.4°f.
* Wind from: 310° Speed 24 kn with Gusts up to 40 kn.
Dewpoint: -17° c.
Visibility: 10 Statute Miles.
Clouds: Scattered 6000 ft.

PADQ 232253Z 31024G40KT 10SM SCT060 M07/M17 A2953 RMK AO2 PK WND 29043/2228 SLP000 T10671167


Wind From 310°
Speed 24 kn.

 
 
jpsmedia worldairports.se 2020   terms of use